sensor_id;sensor_type;location;lat;lon;timestamp;pressure;altitude;pressure_sealevel;temperature;humidity
45523;BME280;31254;51.680;5.394;2023-04-01T00:01:46;99130.97;;;10.45;97.35
45523;BME280;31254;51.680;5.394;2023-04-01T00:04:13;99115.28;;;10.32;97.52
45523;BME280;31254;51.680;5.394;2023-04-01T00:06:40;99115.81;;;10.42;97.34
45523;BME280;31254;51.680;5.394;2023-04-01T00:09:07;99126.91;;;10.41;97.29
45523;BME280;31254;51.680;5.394;2023-04-01T00:11:33;99129.25;;;10.44;97.67
45523;BME280;31254;51.680;5.394;2023-04-01T00:14:00;99128.06;;;10.47;97.29
45523;BME280;31254;51.680;5.394;2023-04-01T00:16:27;99135.38;;;10.46;97.76
45523;BME280;31254;51.680;5.394;2023-04-01T00:18:54;99141.69;;;10.47;97.50
45523;BME280;31254;51.680;5.394;2023-04-01T00:21:21;99134.06;;;10.42;97.49
45523;BME280;31254;51.680;5.394;2023-04-01T00:23:50;99137.72;;;10.49;97.81
45523;BME280;31254;51.680;5.394;2023-04-01T00:26:17;99133.13;;;10.35;98.08
45523;BME280;31254;51.680;5.394;2023-04-01T00:28:47;99141.41;;;10.41;97.97
45523;BME280;31254;51.680;5.394;2023-04-01T00:31:14;99147.69;;;10.42;98.08
45523;BME280;31254;51.680;5.394;2023-04-01T00:33:41;99128.72;;;10.34;97.41
45523;BME280;31254;51.680;5.394;2023-04-01T00:36:12;99144.22;;;10.48;97.57
45523;BME280;31254;51.680;5.394;2023-04-01T00:38:40;99144.59;;;10.45;97.69
45523;BME280;31254;51.680;5.394;2023-04-01T00:41:09;99157.00;;;10.48;97.70
45523;BME280;31254;51.680;5.394;2023-04-01T00:43:44;99159.34;;;10.51;97.66
45523;BME280;31254;51.680;5.394;2023-04-01T00:46:11;99133.63;;;10.38;97.77
45523;BME280;31254;51.680;5.394;2023-04-01T00:48:42;99153.69;;;10.52;97.66
45523;BME280;31254;51.680;5.394;2023-04-01T00:51:14;99143.19;;;10.34;97.63
45523;BME280;31254;51.680;5.394;2023-04-01T00:53:47;99145.09;;;10.34;97.86
45523;BME280;31254;51.680;5.394;2023-04-01T00:56:51;99142.16;;;10.35;97.92
45523;BME280;31254;51.680;5.394;2023-04-01T00:59:25;99167.69;;;10.49;97.75
45523;BME280;31254;51.680;5.394;2023-04-01T01:01:53;99142.06;;;10.29;97.80
45523;BME280;31254;51.680;5.394;2023-04-01T01:06:54;99172.31;;;10.49;98.08
45523;BME280;31254;51.680;5.394;2023-04-01T01:15:55;99171.69;;;10.47;98.09
45523;BME280;31254;51.680;5.394;2023-04-01T01:21:28;99179.66;;;10.48;98.16
45523;BME280;31254;51.680;5.394;2023-04-01T01:37:17;99162.91;;;10.21;98.35
45523;BME280;31254;51.680;5.394;2023-04-01T01:39:48;99185.03;;;10.41;98.55
45523;BME280;31254;51.680;5.394;2023-04-01T01:42:20;99190.25;;;10.43;98.16
45523;BME280;31254;51.680;5.394;2023-04-01T01:44:49;99190.84;;;10.38;98.69
45523;BME280;31254;51.680;5.394;2023-04-01T01:47:19;99042.41;;;9.45;98.37
45523;BME280;31254;51.680;5.394;2023-04-01T01:49:50;99106.66;;;9.84;98.44
45523;BME280;31254;51.680;5.394;2023-04-01T01:52:21;99199.88;;;10.39;98.61
45523;BME280;31254;51.680;5.394;2023-04-01T01:54:53;99198.34;;;10.36;98.46
45523;BME280;31254;51.680;5.394;2023-04-01T01:57:26;99187.25;;;10.23;98.76
45523;BME280;31254;51.680;5.394;2023-04-01T02:00:02;99200.44;;;10.34;98.79
45523;BME280;31254;51.680;5.394;2023-04-01T02:02:30;99202.50;;;10.32;98.71
45523;BME280;31254;51.680;5.394;2023-04-01T02:04:58;99202.31;;;10.34;98.71
45523;BME280;31254;51.680;5.394;2023-04-01T02:07:29;99204.19;;;10.33;99.23
45523;BME280;31254;51.680;5.394;2023-04-01T02:09:57;99202.66;;;10.31;99.18
45523;BME280;31254;51.680;5.394;2023-04-01T02:12:24;99205.94;;;10.26;98.79
45523;BME280;31254;51.680;5.394;2023-04-01T02:17:22;99191.47;;;10.11;98.94
45523;BME280;31254;51.680;5.394;2023-04-01T02:19:52;99221.47;;;10.25;99.26
45523;BME280;31254;51.680;5.394;2023-04-01T02:22:34;99216.66;;;10.28;99.02
45523;BME280;31254;51.680;5.394;2023-04-01T02:25:07;99195.44;;;10.08;99.36
45523;BME280;31254;51.680;5.394;2023-04-01T02:27:38;99214.88;;;10.20;99.13
45523;BME280;31254;51.680;5.394;2023-04-01T02:30:06;99200.31;;;10.13;99.43
45523;BME280;31254;51.680;5.394;2023-04-01T02:32:37;99220.31;;;10.20;99.17
45523;BME280;31254;51.680;5.394;2023-04-01T02:35:10;99216.47;;;10.14;99.37
45523;BME280;31254;51.680;5.394;2023-04-01T02:37:41;99227.47;;;10.21;98.92
45523;BME280;31254;51.680;5.394;2023-04-01T02:40:11;99207.34;;;10.07;98.88
45523;BME280;31254;51.680;5.394;2023-04-01T02:42:38;99163.09;;;9.75;98.96
45523;BME280;31254;51.680;5.394;2023-04-01T02:45:06;99222.75;;;10.15;98.90
45523;BME280;31254;51.680;5.394;2023-04-01T02:47:35;99238.28;;;10.14;98.96
45523;BME280;31254;51.680;5.394;2023-04-01T02:50:02;99210.34;;;9.97;98.81
45523;BME280;31254;51.680;5.394;2023-04-01T02:52:29;99229.41;;;10.12;99.13
45523;BME280;31254;51.680;5.394;2023-04-01T02:54:58;99218.78;;;10.02;99.41
45523;BME280;31254;51.680;5.394;2023-04-01T02:57:25;99221.53;;;10.02;99.54
45523;BME280;31254;51.680;5.394;2023-04-01T02:59:52;99232.06;;;10.05;99.41
45523;BME280;31254;51.680;5.394;2023-04-01T03:02:21;99235.06;;;10.11;99.56
45523;BME280;31254;51.680;5.394;2023-04-01T03:04:48;99201.69;;;9.94;99.82
45523;BME280;31254;51.680;5.394;2023-04-01T03:07:15;99239.66;;;10.10;99.56
45523;BME280;31254;51.680;5.394;2023-04-01T03:09:41;99243.22;;;10.11;99.54
45523;BME280;31254;51.680;5.394;2023-04-01T03:12:08;99244.47;;;10.08;99.43
45523;BME280;31254;51.680;5.394;2023-04-01T03:14:35;99238.72;;;10.03;99.25
45523;BME280;31254;51.680;5.394;2023-04-01T03:17:01;99261.66;;;10.09;99.16
45523;BME280;31254;51.680;5.394;2023-04-01T03:19:28;99252.63;;;10.08;99.49
45523;BME280;31254;51.680;5.394;2023-04-01T03:21:55;99240.69;;;9.94;99.33
45523;BME280;31254;51.680;5.394;2023-04-01T03:24:22;99242.00;;;9.98;99.38
45523;BME280;31254;51.680;5.394;2023-04-01T03:26:48;99221.41;;;9.81;99.57
45523;BME280;31254;51.680;5.394;2023-04-01T03:29:15;99235.13;;;9.87;99.40
45523;BME280;31254;51.680;5.394;2023-04-01T03:31:42;99258.34;;;9.98;99.83
45523;BME280;31254;51.680;5.394;2023-04-01T03:34:09;99230.03;;;9.84;99.37
45523;BME280;31254;51.680;5.394;2023-04-01T03:36:36;99268.19;;;9.99;99.50
45523;BME280;31254;51.680;5.394;2023-04-01T03:39:04;99269.97;;;9.92;99.93
45523;BME280;31254;51.680;5.394;2023-04-01T03:41:32;99270.16;;;9.91;99.53
45523;BME280;31254;51.680;5.394;2023-04-01T03:44:03;99267.06;;;9.94;99.87
45523;BME280;31254;51.680;5.394;2023-04-01T03:46:32;99268.59;;;9.96;99.65
45523;BME280;31254;51.680;5.394;2023-04-01T03:48:59;99248.44;;;9.82;99.61
45523;BME280;31254;51.680;5.394;2023-04-01T03:51:26;99273.53;;;9.93;99.71
45523;BME280;31254;51.680;5.394;2023-04-01T03:53:55;99261.53;;;9.87;99.83
45523;BME280;31254;51.680;5.394;2023-04-01T03:56:22;99138.22;;;9.02;99.48
45523;BME280;31254;51.680;5.394;2023-04-01T03:58:48;99250.97;;;9.69;99.32
45523;BME280;31254;51.680;5.394;2023-04-01T04:01:21;99253.00;;;9.67;99.86
45523;BME280;31254;51.680;5.394;2023-04-01T04:03:51;99277.56;;;9.82;99.85
45523;BME280;31254;51.680;5.394;2023-04-01T04:06:19;99288.47;;;9.82;99.58
45523;BME280;31254;51.680;5.394;2023-04-01T04:08:48;99269.94;;;9.77;100.00
45523;BME280;31254;51.680;5.394;2023-04-01T04:11:15;99218.91;;;9.33;100.00
45523;BME280;31254;51.680;5.394;2023-04-01T04:13:43;99289.97;;;9.84;99.73
45523;BME280;31254;51.680;5.394;2023-04-01T04:16:11;99288.66;;;9.80;99.78
45523;BME280;31254;51.680;5.394;2023-04-01T04:18:38;99296.13;;;9.78;99.96
45523;BME280;31254;51.680;5.394;2023-04-01T04:21:10;99264.13;;;9.57;99.47
45523;BME280;31254;51.680;5.394;2023-04-01T04:23:42;99302.63;;;9.77;99.74
45523;BME280;31254;51.680;5.394;2023-04-01T04:26:11;99172.59;;;8.95;99.87
45523;BME280;31254;51.680;5.394;2023-04-01T04:28:39;99307.59;;;9.74;100.00
45523;BME280;31254;51.680;5.394;2023-04-01T04:31:06;99311.81;;;9.76;100.00
45523;BME280;31254;51.680;5.394;2023-04-01T04:33:34;99306.91;;;9.72;100.00
45523;BME280;31254;51.680;5.394;2023-04-01T04:36:03;99301.00;;;9.68;100.00
45523;BME280;31254;51.680;5.394;2023-04-01T04:38:30;99310.69;;;9.70;100.00
45523;BME280;31254;51.680;5.394;2023-04-01T04:40:59;99313.03;;;9.74;100.00
45523;BME280;31254;51.680;5.394;2023-04-01T04:43:26;99331.41;;;9.72;100.00
45523;BME280;31254;51.680;5.394;2023-04-01T04:45:53;99316.97;;;9.71;100.00
45523;BME280;31254;51.680;5.394;2023-04-01T04:48:23;99318.56;;;9.65;100.00
45523;BME280;31254;51.680;5.394;2023-04-01T04:50:50;99256.75;;;9.20;100.00
45523;BME280;31254;51.680;5.394;2023-04-01T04:53:19;99339.41;;;9.73;100.00
45523;BME280;31254;51.680;5.394;2023-04-01T04:55:48;99339.41;;;9.73;99.99
45523;BME280;31254;51.680;5.394;2023-04-01T04:58:16;99344.84;;;9.73;100.00
45523;BME280;31254;51.680;5.394;2023-04-01T05:00:43;99339.06;;;9.76;99.89
45523;BME280;31254;51.680;5.394;2023-04-01T05:03:11;99350.59;;;9.78;99.98
45523;BME280;31254;51.680;5.394;2023-04-01T05:05:38;99345.53;;;9.75;99.85
45523;BME280;31254;51.680;5.394;2023-04-01T05:08:06;99358.28;;;9.75;100.00
45523;BME280;31254;51.680;5.394;2023-04-01T05:10:33;99354.91;;;9.73;100.00
45523;BME280;31254;51.680;5.394;2023-04-01T05:12:59;99348.00;;;9.62;100.00
45523;BME280;31254;51.680;5.394;2023-04-01T05:15:26;99212.13;;;8.74;100.00
45523;BME280;31254;51.680;5.394;2023-04-01T05:17:55;99373.78;;;9.74;100.00
45523;BME280;31254;51.680;5.394;2023-04-01T05:20:21;99357.69;;;9.64;100.00
45523;BME280;31254;51.680;5.394;2023-04-01T05:22:48;99352.25;;;9.64;100.00
45523;BME280;31254;51.680;5.394;2023-04-01T05:25:17;99374.44;;;9.76;100.00
45523;BME280;31254;51.680;5.394;2023-04-01T05:27:44;99141.00;;;8.23;100.00
45523;BME280;31254;51.680;5.394;2023-04-01T05:30:11;99377.78;;;9.63;100.00
45523;BME280;31254;51.680;5.394;2023-04-01T05:32:38;99397.94;;;9.77;100.00
45523;BME280;31254;51.680;5.394;2023-04-01T05:35:07;99392.84;;;9.74;100.00
45523;BME280;31254;51.680;5.394;2023-04-01T05:37:34;99381.66;;;9.69;100.00
45523;BME280;31254;51.680;5.394;2023-04-01T05:40:04;99386.69;;;9.80;100.00
45523;BME280;31254;51.680;5.394;2023-04-01T05:42:31;99408.44;;;9.88;99.91
45523;BME280;31254;51.680;5.394;2023-04-01T05:45:00;99390.25;;;9.81;99.81
45523;BME280;31254;51.680;5.394;2023-04-01T05:47:29;99392.16;;;9.80;100.00
45523;BME280;31254;51.680;5.394;2023-04-01T05:49:58;99405.59;;;9.82;100.00
45523;BME280;31254;51.680;5.394;2023-04-01T05:52:24;99401.94;;;9.89;100.00
45523;BME280;31254;51.680;5.394;2023-04-01T05:54:51;99424.53;;;9.98;100.00
45523;BME280;31254;51.680;5.394;2023-04-01T05:57:18;99385.72;;;9.73;100.00
45523;BME280;31254;51.680;5.394;2023-04-01T05:59:47;99428.09;;;9.99;100.00
45523;BME280;31254;51.680;5.394;2023-04-01T06:02:17;99402.50;;;9.85;100.00
45523;BME280;31254;51.680;5.394;2023-04-01T06:04:46;99425.78;;;9.87;100.00
45523;BME280;31254;51.680;5.394;2023-04-01T06:07:14;99422.72;;;9.91;100.00
45523;BME280;31254;51.680;5.394;2023-04-01T06:09:45;99440.16;;;10.04;99.97
45523;BME280;31254;51.680;5.394;2023-04-01T06:17:48;99434.84;;;9.88;100.00
45523;BME280;31254;51.680;5.394;2023-04-01T06:39:46;99480.91;;;9.98;100.00
45523;BME280;31254;51.680;5.394;2023-04-01T06:48:38;99510.78;;;10.14;100.00
45523;BME280;31254;51.680;5.394;2023-04-01T06:51:20;99509.56;;;10.17;100.00
45523;BME280;31254;51.680;5.394;2023-04-01T06:56:59;99495.69;;;10.03;100.00
45523;BME280;31254;51.680;5.394;2023-04-01T06:59:33;99514.41;;;10.06;100.00
45523;BME280;31254;51.680;5.394;2023-04-01T07:02:18;99499.25;;;10.04;100.00
45523;BME280;31254;51.680;5.394;2023-04-01T07:04:52;99498.28;;;9.97;100.00
45523;BME280;31254;51.680;5.394;2023-04-01T07:07:48;99537.31;;;10.20;100.00
45523;BME280;31254;51.680;5.394;2023-04-01T07:10:34;99539.00;;;10.21;100.00
45523;BME280;31254;51.680;5.394;2023-04-01T07:13:06;99533.91;;;10.18;100.00
45523;BME280;31254;51.680;5.394;2023-04-01T07:15:40;99551.97;;;10.19;100.00
45523;BME280;31254;51.680;5.394;2023-04-01T07:20:42;99563.34;;;10.23;100.00
45523;BME280;31254;51.680;5.394;2023-04-01T07:23:26;99526.66;;;10.02;100.00
45523;BME280;31254;51.680;5.394;2023-04-01T07:26:11;99560.75;;;10.30;100.00
45523;BME280;31254;51.680;5.394;2023-04-01T07:28:41;99558.56;;;10.25;100.00
45523;BME280;31254;51.680;5.394;2023-04-01T07:34:12;99570.22;;;10.50;99.62
45523;BME280;31254;51.680;5.394;2023-04-01T07:36:46;99569.97;;;10.60;99.42
45523;BME280;31254;51.680;5.394;2023-04-01T07:39:28;99574.53;;;10.68;99.14
45523;BME280;31254;51.680;5.394;2023-04-01T07:47:44;99584.44;;;10.60;98.96
45523;BME280;31254;51.680;5.394;2023-04-01T07:50:27;99588.03;;;10.61;99.06
45523;BME280;31254;51.680;5.394;2023-04-01T07:53:22;99593.09;;;10.64;99.03
45523;BME280;31254;51.680;5.394;2023-04-01T07:58:54;99601.13;;;10.66;99.29
45523;BME280;31254;51.680;5.394;2023-04-01T08:01:39;99604.53;;;10.68;99.06
45523;BME280;31254;51.680;5.394;2023-04-01T08:04:23;99613.72;;;10.67;99.26
45523;BME280;31254;51.680;5.394;2023-04-01T08:07:18;99561.09;;;10.27;99.49
45523;BME280;31254;51.680;5.394;2023-04-01T08:15:27;99625.72;;;10.57;99.15
45523;BME280;31254;51.680;5.394;2023-04-01T08:18:03;99631.16;;;10.57;99.30
45523;BME280;31254;51.680;5.394;2023-04-01T08:20:48;99643.78;;;10.58;99.60
45523;BME280;31254;51.680;5.394;2023-04-01T08:28:44;99623.78;;;10.35;99.42
45523;BME280;31254;51.680;5.394;2023-04-01T08:34:24;99657.81;;;10.47;99.37
45523;BME280;31254;51.680;5.394;2023-04-01T08:37:00;99668.72;;;10.47;99.41
45523;BME280;31254;51.680;5.394;2023-04-01T08:47:54;99680.78;;;10.61;99.04
45523;BME280;31254;51.680;5.394;2023-04-01T08:56:14;99693.84;;;10.66;99.32
45523;BME280;31254;51.680;5.394;2023-04-01T09:07:51;99686.34;;;10.68;98.34
45523;BME280;31254;51.680;5.394;2023-04-01T09:10:41;99713.22;;;10.79;98.57
45523;BME280;31254;51.680;5.394;2023-04-01T09:29:53;99743.94;;;10.73;99.23
45523;BME280;31254;51.680;5.394;2023-04-01T09:32:59;99737.09;;;10.77;99.38
45523;BME280;31254;51.680;5.394;2023-04-01T09:35:48;99747.66;;;10.80;99.16
45523;BME280;31254;51.680;5.394;2023-04-01T09:38:29;99749.00;;;10.84;99.11
45523;BME280;31254;51.680;5.394;2023-04-01T09:49:55;99762.19;;;11.04;98.59
45523;BME280;31254;51.680;5.394;2023-04-01T09:52:47;99760.63;;;11.09;98.31
45523;BME280;31254;51.680;5.394;2023-04-01T10:07:11;99766.97;;;11.33;98.17
45523;BME280;31254;51.680;5.394;2023-04-01T10:10:20;99768.16;;;11.30;98.14
45523;BME280;31254;51.680;5.394;2023-04-01T10:12:55;99776.91;;;11.26;98.41
45523;BME280;31254;51.680;5.394;2023-04-01T10:35:58;99789.22;;;11.45;97.39
45523;BME280;31254;51.680;5.394;2023-04-01T10:41:38;99802.97;;;11.60;97.10
45523;BME280;31254;51.680;5.394;2023-04-01T10:44:11;99794.72;;;11.68;96.81
45523;BME280;31254;51.680;5.394;2023-04-01T10:55:45;99806.25;;;11.78;96.86
45523;BME280;31254;51.680;5.394;2023-04-01T11:10:08;99822.72;;;11.93;96.17
45523;BME280;31254;51.680;5.394;2023-04-01T11:21:34;99818.22;;;12.00;95.79
45523;BME280;31254;51.680;5.394;2023-04-01T11:24:16;99832.84;;;12.07;95.61
45523;BME280;31254;51.680;5.394;2023-04-01T11:51:07;99869.81;;;11.95;95.70
45523;BME280;31254;51.680;5.394;2023-04-01T11:53:49;99828.53;;;11.67;95.96
45523;BME280;31254;51.680;5.394;2023-04-01T11:59:57;99876.19;;;11.87;95.99
45523;BME280;31254;51.680;5.394;2023-04-01T12:05:43;99898.59;;;11.83;96.00
45523;BME280;31254;51.680;5.394;2023-04-01T12:11:50;99885.91;;;11.90;95.81
45523;BME280;31254;51.680;5.394;2023-04-01T12:14:38;99898.50;;;11.99;95.67
45523;BME280;31254;51.680;5.394;2023-04-01T12:20:24;99911.22;;;11.92;95.76
45523;BME280;31254;51.680;5.394;2023-04-01T12:23:20;99911.38;;;11.82;96.06
45523;BME280;31254;51.680;5.394;2023-04-01T12:39:29;99922.13;;;11.84;96.33
45523;BME280;31254;51.680;5.394;2023-04-01T12:51:33;99934.19;;;11.75;96.79
45523;BME280;31254;51.680;5.394;2023-04-01T13:07:19;99950.56;;;11.75;96.79
45523;BME280;31254;51.680;5.394;2023-04-01T13:09:59;99958.59;;;11.76;96.77
45523;BME280;31254;51.680;5.394;2023-04-01T13:12:50;99958.22;;;11.79;96.53
45523;BME280;31254;51.680;5.394;2023-04-01T13:18:16;99966.56;;;11.86;96.36
45523;BME280;31254;51.680;5.394;2023-04-01T13:32:56;99978.19;;;11.80;96.89
45523;BME280;31254;51.680;5.394;2023-04-01T13:35:51;99970.97;;;11.87;96.76
45523;BME280;31254;51.680;5.394;2023-04-01T13:44:22;99989.06;;;11.96;96.44
45523;BME280;31254;51.680;5.394;2023-04-01T13:50:05;99993.88;;;11.86;96.62
45523;BME280;31254;51.680;5.394;2023-04-01T13:56:42;99997.56;;;11.70;97.17
45523;BME280;31254;51.680;5.394;2023-04-01T13:59:04;100006.44;;;11.64;97.12
45523;BME280;31254;51.680;5.394;2023-04-01T14:04:49;100011.38;;;11.68;97.14
45523;BME280;31254;51.680;5.394;2023-04-01T14:07:37;100013.44;;;11.66;97.17
45523;BME280;31254;51.680;5.394;2023-04-01T14:10:44;100020.09;;;11.64;97.39
45523;BME280;31254;51.680;5.394;2023-04-01T14:13:25;100018.09;;;11.58;97.71
45523;BME280;31254;51.680;5.394;2023-04-01T14:18:47;100025.44;;;11.57;97.77
45523;BME280;31254;51.680;5.394;2023-04-01T14:24:22;100030.19;;;11.63;97.87
45523;BME280;31254;51.680;5.394;2023-04-01T14:29:42;100025.56;;;11.64;97.90
45523;BME280;31254;51.680;5.394;2023-04-01T14:40:28;100044.72;;;11.56;98.06
45523;BME280;31254;51.680;5.394;2023-04-01T14:48:51;100039.81;;;11.43;98.50
45523;BME280;31254;51.680;5.394;2023-04-01T14:51:32;100052.09;;;11.47;98.52
45523;BME280;31254;51.680;5.394;2023-04-01T14:54:16;100050.03;;;11.49;98.25
45523;BME280;31254;51.680;5.394;2023-04-01T14:57:01;100058.22;;;11.57;98.02
45523;BME280;31254;51.680;5.394;2023-04-01T14:59:29;100059.91;;;11.66;97.77
45523;BME280;31254;51.680;5.394;2023-04-01T15:18:59;100088.66;;;11.94;97.09
45523;BME280;31254;51.680;5.394;2023-04-01T15:25:00;100091.22;;;11.87;97.22
45523;BME280;31254;51.680;5.394;2023-04-01T15:33:12;100090.06;;;11.81;97.83
45523;BME280;31254;51.680;5.394;2023-04-01T15:41:39;100090.75;;;11.75;97.86
45523;BME280;31254;51.680;5.394;2023-04-01T15:49:56;100113.47;;;11.76;97.77
45523;BME280;31254;51.680;5.394;2023-04-01T15:55:31;100109.09;;;11.58;97.90
45523;BME280;31254;51.680;5.394;2023-04-01T15:58:27;100116.91;;;11.61;98.31
45523;BME280;31254;51.680;5.394;2023-04-01T16:01:23;100126.50;;;11.57;98.61
45523;BME280;31254;51.680;5.394;2023-04-01T16:04:36;100124.28;;;11.52;98.59
45523;BME280;31254;51.680;5.394;2023-04-01T16:06:56;100107.25;;;11.34;98.92
45523;BME280;31254;51.680;5.394;2023-04-01T16:09:51;100135.56;;;11.49;99.06
45523;BME280;31254;51.680;5.394;2023-04-01T16:20:54;100148.53;;;11.47;99.37
45523;BME280;31254;51.680;5.394;2023-04-01T16:23:39;100157.91;;;11.45;99.53
45523;BME280;31254;51.680;5.394;2023-04-01T16:31:55;100153.31;;;11.29;99.68
45523;BME280;31254;51.680;5.394;2023-04-01T16:34:41;100170.41;;;11.39;99.84
45523;BME280;31254;51.680;5.394;2023-04-01T16:37:14;100184.56;;;11.34;99.93
45523;BME280;31254;51.680;5.394;2023-04-01T16:40:57;100173.13;;;11.31;100.00
45523;BME280;31254;51.680;5.394;2023-04-01T16:45:51;100167.50;;;11.24;99.76
45523;BME280;31254;51.680;5.394;2023-04-01T16:48:25;100200.63;;;11.38;100.00
45523;BME280;31254;51.680;5.394;2023-04-01T16:51:18;100207.97;;;11.37;100.00
45523;BME280;31254;51.680;5.394;2023-04-01T16:54:10;100190.53;;;11.30;100.00
45523;BME280;31254;51.680;5.394;2023-04-01T16:56:45;100217.34;;;11.43;100.00
45523;BME280;31254;51.680;5.394;2023-04-01T16:59:21;100207.75;;;11.30;100.00
45523;BME280;31254;51.680;5.394;2023-04-01T17:04:38;100229.63;;;11.39;100.00
45523;BME280;31254;51.680;5.394;2023-04-01T17:13:26;100247.22;;;11.36;100.00
45523;BME280;31254;51.680;5.394;2023-04-01T17:18:45;100251.44;;;11.22;100.00
45523;BME280;31254;51.680;5.394;2023-04-01T17:24:22;100285.25;;;11.29;100.00
45523;BME280;31254;51.680;5.394;2023-04-01T17:27:34;100289.16;;;11.27;100.00
45523;BME280;31254;51.680;5.394;2023-04-01T17:35:39;100301.44;;;11.14;100.00
45523;BME280;31254;51.680;5.394;2023-04-01T17:41:10;100328.59;;;11.16;100.00
45523;BME280;31254;51.680;5.394;2023-04-01T17:49:34;100337.59;;;11.08;100.00
45523;BME280;31254;51.680;5.394;2023-04-01T17:55:05;100353.22;;;10.98;100.00
45523;BME280;31254;51.680;5.394;2023-04-01T17:57:48;100353.38;;;10.88;100.00
45523;BME280;31254;51.680;5.394;2023-04-01T18:07:17;100382.34;;;10.81;100.00
45523;BME280;31254;51.680;5.394;2023-04-01T18:17:38;100375.03;;;10.55;100.00
45523;BME280;31254;51.680;5.394;2023-04-01T18:20:25;100411.63;;;10.71;100.00
45523;BME280;31254;51.680;5.394;2023-04-01T18:25:43;100418.34;;;10.58;100.00
45523;BME280;31254;51.680;5.394;2023-04-01T18:28:33;100439.69;;;10.63;100.00
45523;BME280;31254;51.680;5.394;2023-04-01T18:33:36;100452.09;;;10.57;100.00
45523;BME280;31254;51.680;5.394;2023-04-01T18:36:22;100455.31;;;10.53;100.00
45523;BME280;31254;51.680;5.394;2023-04-01T18:38:55;100463.81;;;10.50;100.00
45523;BME280;31254;51.680;5.394;2023-04-01T18:44:44;100473.09;;;10.39;100.00
45523;BME280;31254;51.680;5.394;2023-04-01T18:53:42;100504.78;;;10.22;100.00
45523;BME280;31254;51.680;5.394;2023-04-01T18:56:36;100476.97;;;10.00;100.00
45523;BME280;31254;51.680;5.394;2023-04-01T19:02:20;100522.63;;;10.16;100.00
45523;BME280;31254;51.680;5.394;2023-04-01T19:05:04;100531.09;;;10.13;100.00
45523;BME280;31254;51.680;5.394;2023-04-01T19:15:31;100552.53;;;10.08;100.00
45523;BME280;31254;51.680;5.394;2023-04-01T19:18:07;100557.97;;;10.08;100.00
45523;BME280;31254;51.680;5.394;2023-04-01T19:20:47;100568.47;;;10.03;100.00
45523;BME280;31254;51.680;5.394;2023-04-01T19:37:27;100605.56;;;9.86;100.00
45523;BME280;31254;51.680;5.394;2023-04-01T19:40:19;100587.56;;;9.75;100.00
45523;BME280;31254;51.680;5.394;2023-04-01T19:52:06;100624.94;;;9.83;100.00
45523;BME280;31254;51.680;5.394;2023-04-01T19:54:53;100634.00;;;9.83;100.00
45523;BME280;31254;51.680;5.394;2023-04-01T19:57:34;100632.56;;;9.79;100.00
45523;BME280;31254;51.680;5.394;2023-04-01T20:00:28;100644.78;;;9.75;100.00
45523;BME280;31254;51.680;5.394;2023-04-01T20:05:51;100617.47;;;9.47;100.00
45523;BME280;31254;51.680;5.394;2023-04-01T20:08:33;100663.16;;;9.63;100.00
45523;BME280;31254;51.680;5.394;2023-04-01T20:12:01;100663.59;;;9.59;100.00
45523;BME280;31254;51.680;5.394;2023-04-01T20:14:48;100670.34;;;9.55;100.00
45523;BME280;31254;51.680;5.394;2023-04-01T20:17:30;100690.41;;;9.54;100.00
45523;BME280;31254;51.680;5.394;2023-04-01T20:27:49;100707.66;;;9.44;100.00
45523;BME280;31254;51.680;5.394;2023-04-01T20:33:31;100724.56;;;9.38;100.00
45523;BME280;31254;51.680;5.394;2023-04-01T20:43:44;100687.34;;;8.90;100.00
45523;BME280;31254;51.680;5.394;2023-04-01T20:46:23;100759.22;;;9.26;100.00
45523;BME280;31254;51.680;5.394;2023-04-01T20:52:32;100760.97;;;9.27;100.00
45523;BME280;31254;51.680;5.394;2023-04-01T21:05:35;100783.00;;;9.14;100.00
45523;BME280;31254;51.680;5.394;2023-04-01T21:14:32;100814.50;;;8.98;99.71
45523;BME280;31254;51.680;5.394;2023-04-01T21:20:15;100824.47;;;8.77;100.00
45523;BME280;31254;51.680;5.394;2023-04-01T21:28:28;100844.81;;;8.73;100.00
45523;BME280;31254;51.680;5.394;2023-04-01T21:33:59;100850.53;;;8.70;100.00
45523;BME280;31254;51.680;5.394;2023-04-01T22:04:23;100908.72;;;8.37;100.00
45523;BME280;31254;51.680;5.394;2023-04-01T22:07:14;100909.59;;;8.37;100.00
45523;BME280;31254;51.680;5.394;2023-04-01T22:09:50;100925.38;;;8.44;100.00
45523;BME280;31254;51.680;5.394;2023-04-01T22:12:46;100927.97;;;8.45;100.00
45523;BME280;31254;51.680;5.394;2023-04-01T22:18:33;100944.03;;;8.37;100.00
45523;BME280;31254;51.680;5.394;2023-04-01T22:21:05;100942.34;;;8.36;100.00
45523;BME280;31254;51.680;5.394;2023-04-01T22:23:37;100950.91;;;8.31;99.98
45523;BME280;31254;51.680;5.394;2023-04-01T22:29:20;100959.84;;;8.22;100.00
45523;BME280;31254;51.680;5.394;2023-04-01T22:32:20;100965.41;;;8.20;100.00
45523;BME280;31254;51.680;5.394;2023-04-01T22:35:10;100959.69;;;8.02;99.79
45523;BME280;31254;51.680;5.394;2023-04-01T22:37:58;100973.13;;;8.04;99.33
45523;BME280;31254;51.680;5.394;2023-04-01T22:40:55;100985.13;;;8.01;99.76
45523;BME280;31254;51.680;5.394;2023-04-01T22:43:31;100977.34;;;7.97;99.79
45523;BME280;31254;51.680;5.394;2023-04-01T22:48:46;100990.34;;;7.93;99.93
45523;BME280;31254;51.680;5.394;2023-04-01T22:51:28;100997.50;;;7.94;99.93
45523;BME280;31254;51.680;5.394;2023-04-01T22:56:31;101003.66;;;7.96;99.90
45523;BME280;31254;51.680;5.394;2023-04-01T23:01:41;100997.28;;;7.86;99.58
45523;BME280;31254;51.680;5.394;2023-04-01T23:04:16;101000.34;;;7.93;99.63
45523;BME280;31254;51.680;5.394;2023-04-01T23:06:52;100762.31;;;6.41;99.33
45523;BME280;31254;51.680;5.394;2023-04-01T23:09:27;101019.97;;;7.96;99.10
45523;BME280;31254;51.680;5.394;2023-04-01T23:17:19;101032.22;;;7.91;98.18
45523;BME280;31254;51.680;5.394;2023-04-01T23:22:51;101048.78;;;7.87;97.77
45523;BME280;31254;51.680;5.394;2023-04-01T23:38:37;101076.47;;;7.59;97.80
45523;BME280;31254;51.680;5.394;2023-04-01T23:41:05;101065.25;;;7.52;98.15